createdAt,value
2019-04-21T00:00:31.937Z,8.78
2019-04-21T00:01:35.625Z,8.63
2019-04-21T00:02:36.023Z,8.64
2019-04-21T00:03:40.219Z,8.53
2019-04-21T00:04:43.386Z,8.44
2019-04-21T00:05:55.746Z,8.46
2019-04-21T00:06:48.124Z,8.42
2019-04-21T00:07:50.700Z,8.30
2019-04-21T00:08:56.547Z,8.48
2019-04-21T00:09:54.921Z,8.28
2019-04-21T00:10:57.874Z,8.30
2019-04-21T00:11:55.393Z,8.27
2019-04-21T00:12:49.206Z,8.31
2019-04-21T00:13:49.727Z,8.16
2019-04-21T00:14:43.376Z,8.05
2019-04-21T00:15:39.903Z,8.06
2019-04-21T00:16:43.220Z,7.97
2019-04-21T00:17:32.033Z,7.91
2019-04-21T00:18:40.831Z,7.85
2019-04-21T00:19:33.965Z,7.82
2019-04-21T00:20:40.919Z,7.72
2019-04-21T00:21:39.568Z,7.69
2019-04-21T00:22:44.059Z,7.73
2019-04-21T00:23:51.479Z,7.58
2019-04-21T00:24:44.337Z,7.63
2019-04-21T00:25:47.103Z,7.57
2019-04-21T00:26:49.494Z,7.56
2019-04-21T00:27:47.773Z,7.48
2019-04-21T00:28:59.478Z,7.43
2019-04-21T00:29:49.768Z,7.45
2019-04-21T00:30:50.918Z,7.38
2019-04-21T00:31:47.114Z,7.25
2019-04-21T00:32:45.063Z,7.23
2019-04-21T00:33:35.608Z,7.28
2019-04-21T00:34:34.264Z,7.23
2019-04-21T00:35:39.107Z,7.18
2019-04-21T00:36:43.946Z,7.14
2019-04-21T00:37:55.368Z,6.99
2019-04-21T00:39:02.414Z,7.00
2019-04-21T00:40:56.622Z,6.88
2019-04-21T00:42:00.884Z,6.88
2019-04-21T00:42:48.775Z,6.79
2019-04-21T00:43:46.532Z,6.82
2019-04-21T00:44:51.309Z,6.74
2019-04-21T00:45:42.216Z,6.78
2019-04-21T00:46:44.643Z,6.69
2019-04-21T00:47:54.517Z,6.67
2019-04-21T00:48:53.584Z,6.66
2019-04-21T00:49:52.708Z,6.70
2019-04-21T00:52:09.329Z,6.56
2019-04-21T00:53:05.500Z,6.63
2019-04-21T00:53:59.580Z,6.52
2019-04-21T00:55:01.096Z,6.56
2019-04-21T00:55:59.788Z,6.52
2019-04-21T00:56:56.675Z,6.54
2019-04-21T00:57:57.422Z,6.51
2019-04-21T00:58:54.371Z,6.35
2019-04-21T00:59:54.373Z,6.41
2019-04-21T01:01:02.207Z,6.39
2019-04-21T01:01:52.775Z,6.28
2019-04-21T01:02:57.606Z,6.28
2019-04-21T01:03:58.373Z,6.24
2019-04-21T01:05:00.144Z,6.30
2019-04-21T01:05:56.069Z,6.26
2019-04-21T01:06:55.963Z,6.22
2019-04-21T01:07:50.360Z,6.22
2019-04-21T01:08:53.199Z,6.14
2019-04-21T01:09:48.615Z,6.09
2019-04-21T01:10:43.342Z,6.08
2019-04-21T01:12:56.192Z,6.02
2019-04-21T01:14:01.090Z,5.97
2019-04-21T01:15:00.454Z,5.97
2019-04-21T01:15:53.053Z,5.89
2019-04-21T01:16:56.125Z,5.91
2019-04-21T01:17:53.197Z,5.90
2019-04-21T01:18:51.699Z,5.90
2019-04-21T01:19:47.061Z,5.87
2019-04-21T01:20:30.920Z,5.80
2019-04-21T01:21:31.079Z,5.82
2019-04-21T01:22:31.069Z,5.83
2019-04-21T01:23:29.889Z,5.84
2019-04-21T01:24:34.475Z,5.84
2019-04-21T01:25:39.335Z,5.68
2019-04-21T01:26:41.645Z,5.75
2019-04-21T01:27:50.814Z,5.69
2019-04-21T01:28:54.441Z,5.69
2019-04-21T01:29:55.182Z,5.62
2019-04-21T01:30:54.929Z,5.65
2019-04-21T01:31:48.268Z,5.65
2019-04-21T01:32:55.809Z,5.56
2019-04-21T01:33:50.953Z,5.68
2019-04-21T01:34:51.638Z,5.53
2019-04-21T01:35:48.263Z,5.53
2019-04-21T01:36:55.713Z,5.56
2019-04-21T01:38:10.959Z,5.54
2019-04-21T01:38:57.760Z,5.39
2019-04-21T01:39:58.400Z,5.41
2019-04-21T01:40:52.987Z,5.44
2019-04-21T01:41:50.874Z,5.44
2019-04-21T01:42:52.859Z,5.28
2019-04-21T01:43:53.529Z,5.33
2019-04-21T01:44:52.296Z,5.30
2019-04-21T01:45:49.391Z,5.33
2019-04-21T01:46:45.863Z,5.32
2019-04-21T01:47:49.180Z,5.28
2019-04-21T01:48:45.171Z,5.25
2019-04-21T01:49:43.122Z,5.18
2019-04-21T01:50:47.139Z,5.07
2019-04-21T01:52:03.889Z,5.05
2019-04-21T01:53:11.531Z,5.10
2019-04-21T01:53:53.430Z,5.04
2019-04-21T01:54:57.641Z,5.00
2019-04-21T01:55:48.558Z,5.00
2019-04-21T01:56:52.353Z,5.00
2019-04-21T01:57:47.107Z,4.92
2019-04-21T01:58:42.940Z,4.78
2019-04-21T01:59:43.472Z,4.80
2019-04-21T02:00:45.544Z,4.87
2019-04-21T02:01:54.148Z,4.87
2019-04-21T02:02:54.658Z,4.86
2019-04-21T02:03:58.388Z,4.97
2019-04-21T02:04:57.536Z,4.94
2019-04-21T02:06:00.055Z,5.04
2019-04-21T02:06:54.916Z,5.14
2019-04-21T02:07:50.831Z,5.11
2019-04-21T02:08:52.533Z,5.05
2019-04-21T02:09:51.298Z,5.07
2019-04-21T02:10:56.281Z,4.92
2019-04-21T02:11:55.221Z,4.92
2019-04-21T02:12:51.242Z,4.87
2019-04-21T02:13:57.241Z,4.84
2019-04-21T02:15:01.119Z,4.82
2019-04-21T02:15:56.363Z,4.78
2019-04-21T02:16:52.009Z,4.71
2019-04-21T02:17:53.678Z,4.67
2019-04-21T02:18:52.942Z,4.63
2019-04-21T02:19:48.024Z,4.58
2019-04-21T02:20:41.366Z,4.66
2019-04-21T02:21:43.302Z,4.52
2019-04-21T02:23:07.322Z,4.44
2019-04-21T02:23:54.587Z,4.49
2019-04-21T02:24:58.377Z,4.42
2019-04-21T02:25:51.080Z,4.48
2019-04-21T02:26:54.109Z,4.53
2019-04-21T02:27:50.221Z,4.53
2019-04-21T02:28:56.484Z,4.50
2019-04-21T02:29:55.836Z,4.50
2019-04-21T02:31:09.629Z,4.53
2019-04-21T02:32:05.677Z,4.42
2019-04-21T02:34:00.386Z,4.37
2019-04-21T02:35:14.760Z,4.48
2019-04-21T02:36:15.577Z,4.42
2019-04-21T02:37:17.506Z,4.41
2019-04-21T02:39:08.427Z,4.38
2019-04-21T02:40:04.238Z,4.34
2019-04-21T02:43:07.443Z,4.30
2019-04-21T02:45:00.017Z,4.24
2019-04-21T02:46:04.783Z,4.23
2019-04-21T02:47:21.222Z,4.10
2019-04-21T02:48:03.948Z,4.13
2019-04-21T02:49:03.992Z,4.13
2019-04-21T02:50:09.540Z,4.19
2019-04-21T02:50:50.054Z,4.12
2019-04-21T02:52:09.168Z,4.05
2019-04-21T02:53:00.909Z,3.99
2019-04-21T02:54:32.317Z,4.10
2019-04-21T02:55:02.390Z,3.99
2019-04-21T02:56:00.694Z,3.99
2019-04-21T02:57:08.609Z,3.92
2019-04-21T02:58:18.331Z,3.91
2019-04-21T02:59:02.270Z,3.84
2019-04-21T03:01:05.082Z,3.86
2019-04-21T03:02:16.319Z,3.84
2019-04-21T03:04:00.064Z,3.80
2019-04-21T03:05:02.407Z,3.66
2019-04-21T03:05:58.625Z,3.66
2019-04-21T03:07:09.444Z,3.76
2019-04-21T03:08:14.720Z,3.73
2019-04-21T03:09:01.147Z,3.66
2019-04-21T03:09:59.800Z,3.66
2019-04-21T03:11:04.728Z,3.59
2019-04-21T03:12:11.187Z,3.51
2019-04-21T03:13:07.675Z,3.51
2019-04-21T03:14:08.950Z,3.69
2019-04-21T03:16:11.865Z,3.70
2019-04-21T03:17:02.599Z,3.58
2019-04-21T03:18:18.772Z,3.58
2019-04-21T03:19:06.952Z,3.55
2019-04-21T03:21:13.402Z,3.56
2019-04-21T03:22:07.192Z,3.62
2019-04-21T03:23:07.844Z,3.53
2019-04-21T03:24:00.636Z,3.56
2019-04-21T03:25:21.326Z,3.47
2019-04-21T03:26:14.360Z,3.42
2019-04-21T03:27:09.816Z,3.32
2019-04-21T03:28:17.870Z,3.42
2019-04-21T03:29:02.969Z,3.36
2019-04-21T03:29:59.226Z,3.34
2019-04-21T03:31:25.582Z,3.41
2019-04-21T03:33:48.835Z,3.40
2019-04-21T03:35:32.775Z,3.40
2019-04-21T03:38:53.222Z,3.37
2019-04-21T03:40:01.409Z,3.36
2019-04-21T03:40:57.861Z,3.41
2019-04-21T03:42:08.802Z,3.47
2019-04-21T03:43:04.921Z,3.48
2019-04-21T03:43:58.886Z,3.51
2019-04-21T03:46:01.228Z,3.58
2019-04-21T03:48:01.362Z,3.34
2019-04-21T03:49:04.830Z,3.34
2019-04-21T03:50:04.729Z,3.36
2019-04-21T03:50:59.009Z,3.37
2019-04-21T03:52:03.549Z,3.37
2019-04-21T03:53:06.871Z,3.29
2019-04-21T03:54:00.619Z,3.37
2019-04-21T03:55:25.561Z,3.36
2019-04-21T03:56:02.764Z,3.32
2019-04-21T03:57:11.398Z,3.40
2019-04-21T04:00:06.271Z,3.37
2019-04-21T04:03:23.698Z,3.21
2019-04-21T04:04:15.083Z,3.29
2019-04-21T04:05:03.374Z,3.25
2019-04-21T04:08:12.884Z,3.04
2019-04-21T04:11:23.086Z,3.07
2019-04-21T04:13:02.726Z,3.05
2019-04-21T04:14:03.938Z,3.10
2019-04-21T04:17:08.397Z,3.13
2019-04-21T04:17:54.393Z,3.13
2019-04-21T04:18:57.857Z,3.11
2019-04-21T04:20:06.034Z,3.05
2019-04-21T04:21:04.477Z,3.10
2019-04-21T04:23:02.893Z,3.11
2019-04-21T04:24:04.671Z,3.23
2019-04-21T04:25:57.731Z,3.11
2019-04-21T04:28:14.166Z,3.32
2019-04-21T04:29:05.934Z,3.19
2019-04-21T04:29:59.164Z,3.23
2019-04-21T04:31:06.139Z,3.23
2019-04-21T04:32:18.752Z,3.25
2019-04-21T04:32:57.343Z,3.16
2019-04-21T04:35:04.006Z,3.19
2019-04-21T04:36:10.869Z,3.16
2019-04-21T04:37:12.634Z,3.18
2019-04-21T04:38:00.504Z,3.25
2019-04-21T04:39:23.241Z,3.22
2019-04-21T04:40:15.928Z,3.28
2019-04-21T04:41:12.096Z,3.25
2019-04-21T04:42:12.369Z,3.28
2019-04-21T04:43:09.010Z,3.26
2019-04-21T04:44:07.132Z,3.29
2019-04-21T04:47:05.464Z,3.28
2019-04-21T04:48:05.395Z,3.28
2019-04-21T04:49:02.422Z,3.22
2019-04-21T04:49:53.416Z,3.26
2019-04-21T04:51:02.216Z,3.28
2019-04-21T04:52:56.836Z,3.29
2019-04-21T04:57:08.382Z,3.28
2019-04-21T04:57:59.218Z,3.37
2019-04-21T04:59:22.626Z,3.40
2019-04-21T05:00:19.852Z,3.36
2019-04-21T05:01:06.158Z,3.36
2019-04-21T05:02:13.378Z,3.47
2019-04-21T05:02:56.004Z,3.50
2019-04-21T05:05:07.352Z,3.45
2019-04-21T05:06:10.561Z,3.48
2019-04-21T05:06:59.992Z,3.60
2019-04-21T05:08:08.346Z,3.56
2019-04-21T05:11:07.792Z,3.66
2019-04-21T05:11:56.351Z,3.76
2019-04-21T05:12:57.047Z,3.74
2019-04-21T05:14:06.421Z,3.73
2019-04-21T05:15:04.144Z,3.76
2019-04-21T05:16:05.295Z,3.86
2019-04-21T05:18:00.788Z,3.92
2019-04-21T05:19:10.047Z,3.98
2019-04-21T05:20:10.292Z,3.99
2019-04-21T05:21:03.624Z,3.95
2019-04-21T05:22:01.814Z,4.13
2019-04-21T05:22:53.080Z,4.14
2019-04-21T05:23:48.526Z,4.24
2019-04-21T05:24:44.007Z,4.26
2019-04-21T05:25:43.274Z,4.44
2019-04-21T05:26:46.161Z,4.35
2019-04-21T05:27:43.786Z,4.32
2019-04-21T05:28:43.641Z,4.40
2019-04-21T05:29:53.833Z,4.38
2019-04-21T05:30:57.764Z,4.44
2019-04-21T05:31:56.779Z,4.48
2019-04-21T05:32:57.599Z,4.52
2019-04-21T05:33:57.390Z,4.60
2019-04-21T05:34:53.321Z,4.70
2019-04-21T05:35:50.683Z,4.66
2019-04-21T05:36:50.304Z,4.84
2019-04-21T05:37:47.307Z,4.75
2019-04-21T05:38:50.283Z,4.80
2019-04-21T05:39:46.789Z,4.87
2019-04-21T05:40:39.926Z,4.94
2019-04-21T05:41:39.790Z,4.99
2019-04-21T05:42:45.521Z,5.08
2019-04-21T05:43:50.392Z,5.10
2019-04-21T05:44:58.113Z,5.18
2019-04-21T05:45:53.314Z,5.20
2019-04-21T05:46:59.396Z,5.33
2019-04-21T05:47:57.044Z,5.36
2019-04-21T05:48:46.944Z,5.39
2019-04-21T05:49:48.239Z,5.44
2019-04-21T05:50:49.843Z,5.54
2019-04-21T05:51:44.083Z,5.57
2019-04-21T05:52:51.385Z,5.69
2019-04-21T05:53:48.228Z,5.65
2019-04-21T05:55:49.225Z,5.76
2019-04-21T05:56:51.457Z,5.86
2019-04-21T05:57:59.883Z,5.84
2019-04-21T05:58:48.454Z,5.94
2019-04-21T05:59:49.127Z,5.93
2019-04-21T06:01:09.435Z,6.02
2019-04-21T06:01:55.528Z,6.02
2019-04-21T06:02:53.419Z,6.17
2019-04-21T06:06:05.062Z,6.35
2019-04-21T06:06:59.897Z,6.52
2019-04-21T06:07:46.178Z,6.52
2019-04-21T06:08:49.676Z,6.48
2019-04-21T06:09:56.859Z,6.56
2019-04-21T06:10:52.451Z,6.62
2019-04-21T06:11:51.601Z,6.79
2019-04-21T06:12:52.194Z,6.84
2019-04-21T06:13:54.987Z,6.87
2019-04-21T06:14:54.556Z,6.95
2019-04-21T06:15:56.222Z,6.96
2019-04-21T06:16:55.544Z,7.03
2019-04-21T06:17:50.615Z,6.96
2019-04-21T06:18:53.079Z,7.06
2019-04-21T06:20:54.726Z,7.25
2019-04-21T06:21:44.764Z,7.42
2019-04-21T06:22:53.335Z,7.69
2019-04-21T06:23:45.628Z,7.95
2019-04-21T06:25:18.709Z,8.16
2019-04-21T06:26:25.440Z,8.33
2019-04-21T06:27:01.513Z,8.46
2019-04-21T06:27:51.074Z,8.60
2019-04-21T06:28:54.872Z,8.69
2019-04-21T06:29:52.740Z,8.74
2019-04-21T06:31:01.441Z,8.81
2019-04-21T06:32:29.468Z,8.82
2019-04-21T06:32:49.357Z,8.94
2019-04-21T06:33:50.829Z,8.91
2019-04-21T06:35:14.919Z,9.00
2019-04-21T06:36:11.346Z,9.13
2019-04-21T06:37:50.134Z,9.25
2019-04-21T06:38:59.677Z,9.31
2019-04-21T06:40:11.827Z,9.31
2019-04-21T06:41:00.473Z,9.41
2019-04-21T06:41:49.791Z,9.46
2019-04-21T06:43:08.257Z,9.58
2019-04-21T06:43:56.597Z,9.48
2019-04-21T06:44:57.553Z,9.65
2019-04-21T06:46:10.894Z,9.82
2019-04-21T06:47:13.908Z,9.79
2019-04-21T06:47:51.295Z,9.82
2019-04-21T06:48:55.779Z,9.91
2019-04-21T06:49:50.551Z,9.86
2019-04-21T06:50:52.804Z,9.97
2019-04-21T06:51:48.297Z,10.05
2019-04-21T06:55:03.525Z,10.23
2019-04-21T06:55:58.518Z,10.33
2019-04-21T06:57:00.266Z,10.41
2019-04-21T06:57:51.629Z,10.41
2019-04-21T06:58:51.786Z,10.48
2019-04-21T06:59:43.647Z,10.60
2019-04-21T07:00:46.938Z,10.64
2019-04-21T07:01:50.435Z,10.79
2019-04-21T07:02:54.885Z,10.82
2019-04-21T07:04:01.052Z,10.96
2019-04-21T07:04:58.984Z,10.94
2019-04-21T07:06:00.312Z,11.08
2019-04-21T07:08:05.130Z,11.18
2019-04-21T07:09:52.868Z,11.37
2019-04-21T07:10:53.308Z,11.37
2019-04-21T07:11:53.918Z,11.44
2019-04-21T07:12:49.698Z,11.51
2019-04-21T07:13:49.017Z,11.62
2019-04-21T07:14:53.324Z,11.60
2019-04-21T07:15:53.033Z,11.70
2019-04-21T07:16:52.845Z,11.75
2019-04-21T07:17:51.220Z,11.78
2019-04-21T07:18:56.207Z,11.90
2019-04-21T07:20:07.308Z,11.90
2019-04-21T07:21:52.448Z,12.20
2019-04-21T07:22:47.784Z,12.35
2019-04-21T07:23:52.151Z,12.46
2019-04-21T07:24:54.018Z,12.42
2019-04-21T07:25:51.487Z,12.54
2019-04-21T07:27:00.166Z,12.60
2019-04-21T07:28:56.964Z,12.78
2019-04-21T07:29:55.104Z,12.94
2019-04-21T07:30:51.613Z,13.09
2019-04-21T07:31:58.717Z,13.19
2019-04-21T07:32:56.576Z,13.28
2019-04-21T07:34:52.147Z,13.50
2019-04-21T07:35:53.997Z,13.50
2019-04-21T07:37:49.264Z,13.77
2019-04-21T07:38:49.727Z,13.78
2019-04-21T07:39:52.767Z,13.89
2019-04-21T07:40:42.643Z,13.85
2019-04-21T07:41:46.998Z,13.87
2019-04-21T07:42:46.957Z,13.90
2019-04-21T07:43:44.368Z,13.87
2019-04-21T07:44:40.871Z,14.10
2019-04-21T07:45:41.913Z,14.20
2019-04-21T07:46:43.198Z,14.18
2019-04-21T07:47:48.010Z,14.30
2019-04-21T07:48:49.775Z,14.35
2019-04-21T07:49:59.025Z,14.43
2019-04-21T07:50:48.235Z,14.50
2019-04-21T07:51:50.908Z,14.51
2019-04-21T07:52:55.389Z,14.51
2019-04-21T07:53:59.602Z,14.63
2019-04-21T07:54:57.552Z,14.70
2019-04-21T07:56:33.016Z,14.88
2019-04-21T07:57:39.549Z,14.85
2019-04-21T07:58:53.605Z,14.96
2019-04-21T07:59:59.383Z,15.10
2019-04-21T08:00:52.624Z,15.03
2019-04-21T08:01:50.738Z,15.04
2019-04-21T08:02:49.682Z,15.14
2019-04-21T08:03:46.757Z,15.31
2019-04-21T08:05:10.231Z,15.33
2019-04-21T08:05:46.053Z,15.31
2019-04-21T08:06:49.544Z,15.49
2019-04-21T08:07:54.203Z,15.62
2019-04-21T08:08:50.442Z,15.64
2019-04-21T08:09:48.345Z,15.76
2019-04-21T08:10:43.951Z,15.73
2019-04-21T08:11:44.354Z,15.76
2019-04-21T08:12:41.932Z,15.73
2019-04-21T08:13:48.780Z,15.75
2019-04-21T08:14:55.745Z,15.88
2019-04-21T08:15:49.432Z,15.97
2019-04-21T08:16:57.294Z,15.91
2019-04-21T08:17:51.023Z,16.02
2019-04-21T08:18:47.272Z,16.12
2019-04-21T08:19:42.806Z,16.16
2019-04-21T08:20:41.859Z,16.33
2019-04-21T08:21:49.662Z,16.46
2019-04-21T08:23:41.434Z,16.43
2019-04-21T08:24:51.771Z,16.47
2019-04-21T08:25:59.906Z,16.47
2019-04-21T08:26:54.002Z,16.47
2019-04-21T08:28:05.934Z,16.58
2019-04-21T08:28:47.535Z,16.57
2019-04-21T08:29:47.659Z,16.68
2019-04-21T08:30:42.694Z,16.78
2019-04-21T08:34:54.871Z,16.87
2019-04-21T08:36:04.763Z,16.86
2019-04-21T08:36:44.958Z,16.90
2019-04-21T08:37:43.141Z,16.99
2019-04-21T08:38:52.191Z,17.01
2019-04-21T08:39:59.700Z,17.04
2019-04-21T08:40:40.806Z,17.04
2019-04-21T08:41:43.994Z,16.97
2019-04-21T08:42:48.577Z,17.12
2019-04-21T08:43:44.651Z,17.23
2019-04-21T08:44:46.870Z,17.12
2019-04-21T08:45:54.110Z,17.19
2019-04-21T08:46:48.747Z,17.16
2019-04-21T08:47:50.141Z,17.19
2019-04-21T08:48:50.823Z,17.23
2019-04-21T08:49:48.057Z,17.26
2019-04-21T08:50:47.611Z,17.20
2019-04-21T08:51:50.395Z,17.22
2019-04-21T08:52:49.348Z,17.22
2019-04-21T08:53:54.704Z,17.24
2019-04-21T08:54:47.074Z,17.31
2019-04-21T08:55:52.463Z,17.34
2019-04-21T08:56:49.695Z,17.36
2019-04-21T08:58:00.132Z,17.34
2019-04-21T08:58:54.872Z,17.48
2019-04-21T08:59:47.139Z,17.49
2019-04-21T09:00:51.389Z,17.45
2019-04-21T09:01:48.907Z,17.65
2019-04-21T09:02:46.575Z,17.68
2019-04-21T09:03:44.638Z,17.65
2019-04-21T09:04:50.721Z,17.64
2019-04-21T09:05:45.639Z,17.71
2019-04-21T09:07:49.292Z,17.78
2019-04-21T09:08:46.014Z,17.82
2019-04-21T09:09:47.499Z,17.85
2019-04-21T09:10:46.996Z,17.82
2019-04-21T09:11:47.216Z,17.82
2019-04-21T09:12:40.429Z,17.90
2019-04-21T09:13:40.963Z,17.89
2019-04-21T09:14:41.940Z,17.89
2019-04-21T09:15:41.685Z,17.97
2019-04-21T09:16:42.685Z,18.11
2019-04-21T09:17:39.531Z,18.10
2019-04-21T09:18:41.976Z,18.19
2019-04-21T09:19:51.315Z,18.26
2019-04-21T09:21:45.524Z,18.19
2019-04-21T09:22:41.535Z,18.25
2019-04-21T09:24:46.844Z,18.34
2019-04-21T09:25:53.058Z,18.45
2019-04-21T09:26:42.886Z,18.45
2019-04-21T09:27:42.796Z,18.49
2019-04-21T09:28:43.882Z,18.55
2019-04-21T09:29:35.420Z,18.49
2019-04-21T09:30:34.983Z,18.65
2019-04-21T09:31:31.991Z,18.62
2019-04-21T09:32:29.111Z,18.71
2019-04-21T09:33:35.740Z,18.71
2019-04-21T09:34:35.896Z,18.77
2019-04-21T09:35:26.962Z,18.88
2019-04-21T09:36:33.387Z,18.88
2019-04-21T09:37:39.254Z,18.86
2019-04-21T09:38:34.357Z,18.80
2019-04-21T09:39:28.086Z,18.88
2019-04-21T09:40:30.199Z,18.84
2019-04-21T09:41:27.481Z,18.90
2019-04-21T09:42:32.315Z,18.95
2019-04-21T09:43:35.736Z,18.88
2019-04-21T09:44:31.459Z,18.95
2019-04-21T09:45:26.499Z,18.98
2019-04-21T09:46:25.682Z,19.07
2019-04-21T09:47:34.183Z,19.18
2019-04-21T09:48:26.627Z,19.14
2019-04-21T09:49:29.023Z,18.99
2019-04-21T09:50:26.515Z,19.14
2019-04-21T09:51:25.606Z,19.00
2019-04-21T09:52:32.901Z,19.12
2019-04-21T09:53:32.870Z,19.15
2019-04-21T09:54:30.921Z,19.11
2019-04-21T09:55:32.052Z,19.14
2019-04-21T09:56:36.140Z,19.11
2019-04-21T09:57:36.689Z,19.24
2019-04-21T09:58:32.936Z,19.24
2019-04-21T09:59:29.958Z,19.26
2019-04-21T10:00:29.314Z,19.30
2019-04-21T10:01:37.114Z,19.34
2019-04-21T10:02:34.225Z,19.31
2019-04-21T10:03:26.299Z,19.39
2019-04-21T10:04:24.386Z,19.29
2019-04-21T10:05:25.547Z,19.31
2019-04-21T10:06:24.478Z,19.41
2019-04-21T10:07:31.850Z,19.45
2019-04-21T10:08:25.350Z,19.47
2019-04-21T10:09:24.411Z,19.51
2019-04-21T10:10:25.288Z,19.52
2019-04-21T10:11:24.614Z,19.58
2019-04-21T10:12:25.552Z,19.59
2019-04-21T10:13:25.396Z,19.62
2019-04-21T10:14:24.408Z,19.74
2019-04-21T10:15:26.279Z,19.73
2019-04-21T10:16:24.258Z,19.77
2019-04-21T10:17:24.369Z,19.81
2019-04-21T10:18:25.110Z,19.92
2019-04-21T10:19:25.478Z,20.00
2019-04-21T10:20:24.542Z,19.91
2019-04-21T10:21:25.817Z,19.95
2019-04-21T10:22:24.200Z,20.03
2019-04-21T10:23:27.393Z,20.04
2019-04-21T10:24:24.532Z,20.06
2019-04-21T10:25:25.292Z,20.09
2019-04-21T10:26:24.410Z,20.02
2019-04-21T10:27:25.442Z,20.10
2019-04-21T10:28:25.122Z,20.06
2019-04-21T10:29:27.378Z,20.19
2019-04-21T10:30:25.150Z,20.13
2019-04-21T10:31:24.924Z,20.22
2019-04-21T10:32:25.433Z,20.29
2019-04-21T10:33:24.236Z,20.26
2019-04-21T10:34:25.219Z,20.14
2019-04-21T10:35:25.042Z,20.25
2019-04-21T10:36:24.928Z,20.26
2019-04-21T10:37:36.520Z,20.24
2019-04-21T10:38:34.292Z,20.31
2019-04-21T10:39:25.002Z,20.24
2019-04-21T10:40:25.385Z,20.37
2019-04-21T10:41:25.490Z,20.50
2019-04-21T10:42:23.977Z,20.34
2019-04-21T10:43:25.602Z,20.48
2019-04-21T10:44:25.203Z,20.58
2019-04-21T10:45:25.198Z,20.55
2019-04-21T10:46:24.724Z,20.67
2019-04-21T10:47:24.773Z,20.66
2019-04-21T10:48:25.195Z,20.69
2019-04-21T10:49:24.504Z,20.74
2019-04-21T10:50:25.142Z,20.74
2019-04-21T10:51:25.301Z,20.78
2019-04-21T10:52:28.946Z,20.82
2019-04-21T10:53:24.923Z,20.77
2019-04-21T10:54:29.603Z,20.84
2019-04-21T10:55:41.736Z,20.87
2019-04-21T10:56:31.600Z,20.84
2019-04-21T10:57:24.852Z,20.84
2019-04-21T10:58:24.604Z,20.92
2019-04-21T10:59:25.073Z,20.87
2019-04-21T11:00:24.091Z,20.85
2019-04-21T11:01:25.048Z,20.84
2019-04-21T11:02:25.050Z,20.78
2019-04-21T11:03:24.834Z,20.85
2019-04-21T11:04:29.640Z,20.97
2019-04-21T11:05:24.943Z,21.09
2019-04-21T11:06:24.444Z,21.27
2019-04-21T11:07:29.871Z,21.60
2019-04-21T11:08:31.808Z,22.06
2019-04-21T11:09:24.690Z,22.88
2019-04-21T11:10:23.716Z,23.73
2019-04-21T11:11:24.005Z,24.47
2019-04-21T11:12:23.971Z,25.14
2019-04-21T11:13:26.046Z,25.72
2019-04-21T11:14:23.675Z,25.96
2019-04-21T11:15:25.247Z,26.23
2019-04-21T11:16:23.624Z,26.55
2019-04-21T11:17:25.940Z,26.92
2019-04-21T11:18:24.043Z,27.32
2019-04-21T11:19:24.769Z,27.51
2019-04-21T11:20:24.714Z,28.00
2019-04-21T11:21:24.820Z,28.48
2019-04-21T11:22:23.568Z,28.76
2019-04-21T11:23:24.947Z,29.05
2019-04-21T11:24:24.935Z,29.38
2019-04-21T11:25:26.277Z,29.47
2019-04-21T11:26:24.336Z,29.69
2019-04-21T11:27:24.670Z,29.54
2019-04-21T11:28:24.770Z,29.72
2019-04-21T11:29:23.603Z,29.79
2019-04-21T11:30:23.526Z,29.82
2019-04-21T11:31:25.007Z,29.71
2019-04-21T11:32:23.494Z,29.84
2019-04-21T11:33:24.878Z,30.03
2019-04-21T11:34:31.538Z,30.13
2019-04-21T11:35:23.507Z,30.53
2019-04-21T11:36:24.870Z,30.99
2019-04-21T11:37:24.152Z,31.18
2019-04-21T11:38:26.941Z,31.47
2019-04-21T11:39:35.124Z,31.52
2019-04-21T11:40:25.471Z,31.64
2019-04-21T11:41:23.928Z,32.14
2019-04-21T11:42:23.787Z,32.38
2019-04-21T11:43:23.998Z,32.56
2019-04-21T11:44:24.768Z,32.82
2019-04-21T11:45:24.521Z,32.83
2019-04-21T11:46:24.491Z,32.90
2019-04-21T11:47:24.571Z,32.95
2019-04-21T11:48:24.202Z,32.90
2019-04-21T11:49:27.099Z,32.90
2019-04-21T11:50:23.329Z,32.93
2019-04-21T11:51:24.800Z,33.05
2019-04-21T11:52:23.279Z,32.96
2019-04-21T11:54:24.627Z,33.27
2019-04-21T11:55:27.451Z,33.24
2019-04-21T11:56:25.066Z,33.01
2019-04-21T11:57:28.033Z,32.48
2019-04-21T11:58:26.010Z,32.36
2019-04-21T11:59:23.816Z,32.38
2019-04-21T12:00:23.980Z,32.65
2019-04-21T12:01:23.521Z,32.58
2019-04-21T12:02:23.576Z,32.82
2019-04-21T12:03:23.982Z,32.77
2019-04-21T12:04:23.431Z,32.52
2019-04-21T12:05:27.864Z,32.59
2019-04-21T12:06:32.373Z,32.60
2019-04-21T12:07:25.145Z,32.77
2019-04-21T12:08:32.426Z,33.02
2019-04-21T12:09:25.095Z,32.87
2019-04-21T12:10:25.210Z,32.92
2019-04-21T12:11:23.304Z,32.95
2019-04-21T12:12:23.341Z,33.00
2019-04-21T12:13:38.186Z,33.04
2019-04-21T12:14:23.822Z,33.17
2019-04-21T12:15:25.070Z,33.19
2019-04-21T12:16:23.337Z,33.08
2019-04-21T12:17:39.697Z,33.11
2019-04-21T12:18:26.341Z,33.23
2019-04-21T12:19:25.025Z,33.22
2019-04-21T12:20:26.353Z,33.46
2019-04-21T12:21:23.363Z,33.80
2019-04-21T12:22:28.116Z,34.23
2019-04-21T12:23:24.667Z,34.29
2019-04-21T12:24:23.036Z,34.14
2019-04-21T12:25:23.025Z,33.69
2019-04-21T12:26:24.166Z,33.76
2019-04-21T12:27:22.934Z,33.87
2019-04-21T12:28:23.891Z,33.58
2019-04-21T12:29:22.933Z,33.15
2019-04-21T12:30:24.046Z,32.96
2019-04-21T12:31:23.430Z,33.05
2019-04-21T12:32:24.137Z,33.07
2019-04-21T12:33:24.280Z,32.96
2019-04-21T12:34:23.917Z,33.24
2019-04-21T12:35:23.850Z,33.61
2019-04-21T12:36:24.080Z,33.77
2019-04-21T12:37:22.838Z,33.67
2019-04-21T12:38:40.660Z,33.43
2019-04-21T12:39:25.080Z,33.53
2019-04-21T12:40:24.900Z,33.79
2019-04-21T12:41:22.766Z,34.02
2019-04-21T12:42:22.913Z,34.38
2019-04-21T12:43:22.772Z,34.66
2019-04-21T12:44:22.888Z,34.78
2019-04-21T12:45:23.934Z,34.93
2019-04-21T12:46:29.893Z,35.10
2019-04-21T12:47:23.790Z,35.18
2019-04-21T12:48:23.833Z,35.39
2019-04-21T12:49:22.842Z,35.18
2019-04-21T12:50:23.625Z,35.27
2019-04-21T12:51:23.930Z,35.37
2019-04-21T12:52:23.907Z,35.23
2019-04-21T12:53:23.571Z,35.04
2019-04-21T12:54:39.644Z,35.02
2019-04-21T12:55:25.140Z,35.14
2019-04-21T12:56:25.321Z,35.23
2019-04-21T12:57:23.436Z,35.04
2019-04-21T12:58:23.651Z,34.66
2019-04-21T12:59:22.580Z,34.43
2019-04-21T13:00:22.902Z,34.62
2019-04-21T13:01:23.162Z,34.64
2019-04-21T13:02:22.538Z,34.73
2019-04-21T13:03:25.513Z,34.88
2019-04-21T13:04:23.585Z,34.45
2019-04-21T13:05:22.510Z,34.45
2019-04-21T13:06:29.719Z,34.64
2019-04-21T13:07:23.561Z,35.02
2019-04-21T13:08:24.980Z,35.19
2019-04-21T13:09:22.529Z,35.26
2019-04-21T13:10:22.647Z,35.12
2019-04-21T13:11:23.351Z,35.27
2019-04-21T13:12:22.850Z,35.19
2019-04-21T13:13:23.973Z,35.22
2019-04-21T13:14:22.485Z,35.22
2019-04-21T13:15:25.399Z,35.18
2019-04-21T13:16:23.369Z,35.08
2019-04-21T13:17:23.525Z,34.90
2019-04-21T13:18:22.633Z,34.80
2019-04-21T13:19:23.189Z,34.64
2019-04-21T13:20:23.313Z,34.67
2019-04-21T13:21:24.521Z,34.66
2019-04-21T13:22:23.462Z,34.71
2019-04-21T13:23:23.106Z,34.35
2019-04-21T13:24:22.431Z,34.20
2019-04-21T13:25:23.489Z,34.27
2019-04-21T13:26:35.526Z,33.95
2019-04-21T13:27:24.717Z,32.51
2019-04-21T13:28:22.892Z,31.15
2019-04-21T13:29:22.273Z,30.03
2019-04-21T13:30:22.444Z,29.04
2019-04-21T13:31:22.399Z,28.11
2019-04-21T13:32:22.401Z,27.39
2019-04-21T13:33:22.969Z,27.36
2019-04-21T13:34:22.325Z,27.03
2019-04-21T13:35:23.275Z,26.21
2019-04-21T13:36:23.468Z,25.91
2019-04-21T13:37:23.576Z,26.40
2019-04-21T13:38:30.119Z,27.18
2019-04-21T13:39:52.166Z,28.05
2019-04-21T13:40:39.773Z,28.89
2019-04-21T13:41:38.733Z,29.73
2019-04-21T13:42:31.139Z,30.61
2019-04-21T13:43:23.263Z,31.06
2019-04-21T13:44:23.432Z,31.52
2019-04-21T13:45:23.844Z,32.03
2019-04-21T13:46:22.807Z,32.33
2019-04-21T13:47:22.760Z,32.52
2019-04-21T13:48:22.421Z,32.65
2019-04-21T13:49:23.340Z,32.74
2019-04-21T13:50:23.572Z,32.58
2019-04-21T13:51:22.905Z,32.59
2019-04-21T13:52:22.809Z,32.51
2019-04-21T13:53:23.130Z,32.45
2019-04-21T13:54:22.062Z,32.33
2019-04-21T13:55:23.430Z,32.04
2019-04-21T13:56:22.698Z,31.97
2019-04-21T13:57:22.718Z,31.85
2019-04-21T13:58:22.164Z,31.80
2019-04-21T13:59:29.740Z,31.81
2019-04-21T14:00:21.955Z,32.00
2019-04-21T14:01:23.400Z,32.16
2019-04-21T14:02:22.625Z,32.01
2019-04-21T14:03:24.712Z,31.28
2019-04-21T14:04:23.216Z,31.00
2019-04-21T14:05:22.385Z,30.84
2019-04-21T14:06:22.528Z,30.91
2019-04-21T14:07:22.033Z,31.03
2019-04-21T14:08:23.119Z,30.44
2019-04-21T14:09:21.965Z,30.13
2019-04-21T14:10:21.969Z,30.21